EXS84G EGBB-LSGG
Flight info
| Callsign | EXS84G |
|---|---|
| Flight time | 1h 21m |
| Altitude | 35000 |
| Route | COWLY UL612 VEULE DCT PEKIM DCT PILUL DCT PIMUP DCT PIXIS DCT PIBAT DCT LUSAR |
| Aircraft | B738/M-SDE2E3FGHIRWXY/LB1 |
Departure
| Time | 2026-05-07 21:27 |
|---|---|
| Airport | Birmingham Airport (EGBB) |
Arrival
| Time | 2026-05-07 22:49 |
|---|---|
| Airport | Geneva International Airport (LSGG) |
| Time | Latitude | Longitude | Altitude | Speed | Heading |
|---|---|---|---|---|---|
| 2026-05-07 21:03 | 52.45037 | -1.73321 | 323 ft | 0 kts | 326° |
| 2026-05-07 21:04 | 52.45037 | -1.73322 | 322 ft | 0 kts | 326° |
| 2026-05-07 21:18 | 52.45027 | -1.73311 | 323 ft | 4 kts | 326° |
| 2026-05-07 21:18 | 52.45011 | -1.73290 | 321 ft | 4 kts | 298° |
| 2026-05-07 21:18 | 52.45009 | -1.73253 | 319 ft | 4 kts | 247° |
| 2026-05-07 21:18 | 52.45017 | -1.73227 | 321 ft | 3 kts | 236° |
| 2026-05-07 21:19 | 52.45003 | -1.73260 | 321 ft | 1 kts | 236° |
| 2026-05-07 21:19 | 52.45003 | -1.73261 | 321 ft | 0 kts | 236° |
| 2026-05-07 21:21 | 52.44993 | -1.73283 | 322 ft | 4 kts | 234° |
| 2026-05-07 21:21 | 52.44979 | -1.73319 | 323 ft | 4 kts | 236° |
| 2026-05-07 21:21 | 52.44950 | -1.73386 | 323 ft | 11 kts | 235° |
| 2026-05-07 21:21 | 52.44903 | -1.73532 | 322 ft | 16 kts | 257° |
| 2026-05-07 21:22 | 52.44950 | -1.73651 | 323 ft | 13 kts | 326° |
| 2026-05-07 21:22 | 52.45035 | -1.73738 | 323 ft | 17 kts | 336° |
| 2026-05-07 21:22 | 52.45143 | -1.73822 | 322 ft | 17 kts | 324° |
| 2026-05-07 21:22 | 52.45239 | -1.73930 | 322 ft | 16 kts | 325° |
| 2026-05-07 21:23 | 52.45316 | -1.74059 | 322 ft | 16 kts | 298° |
| 2026-05-07 21:23 | 52.45365 | -1.74215 | 322 ft | 15 kts | 296° |
| 2026-05-07 21:23 | 52.45413 | -1.74366 | 322 ft | 15 kts | 297° |
| 2026-05-07 21:23 | 52.45455 | -1.74512 | 322 ft | 14 kts | 295° |
| 2026-05-07 21:24 | 52.45518 | -1.74624 | 322 ft | 13 kts | 324° |
| 2026-05-07 21:24 | 52.45606 | -1.74717 | 317 ft | 17 kts | 326° |
| 2026-05-07 21:24 | 52.45712 | -1.74839 | 311 ft | 20 kts | 326° |
| 2026-05-07 21:24 | 52.45828 | -1.74966 | 307 ft | 20 kts | 326° |
| 2026-05-07 21:25 | 52.45944 | -1.75087 | 307 ft | 19 kts | 327° |
| 2026-05-07 21:25 | 52.46058 | -1.75219 | 305 ft | 21 kts | 323° |
| 2026-05-07 21:25 | 52.46173 | -1.75363 | 302 ft | 20 kts | 327° |
| 2026-05-07 21:25 | 52.46200 | -1.75517 | 306 ft | 14 kts | 235° |
| 2026-05-07 21:26 | 52.46158 | -1.75629 | 310 ft | 7 kts | 241° |
| 2026-05-07 21:26 | 52.46139 | -1.75634 | 308 ft | 3 kts | 180° |
| 2026-05-07 21:26 | 52.46123 | -1.75622 | 308 ft | 0 kts | 145° |
| 2026-05-07 21:27 | 52.45917 | -1.75390 | 316 ft | 78 kts | 146° |
| 2026-05-07 21:27 | 52.45247 | -1.74647 | 331 ft | 152 kts | 146° |
| 2026-05-07 21:27 | 52.44316 | -1.73590 | 1020 ft | 167 kts | 146° |
| 2026-05-07 21:27 | 52.43364 | -1.72497 | 2122 ft | 167 kts | 147° |
| 2026-05-07 21:28 | 52.42727 | -1.71791 | 2880 ft | 167 kts | 147° |
| 2026-05-07 21:28 | 52.41360 | -1.70334 | 3826 ft | 193 kts | 154° |
| 2026-05-07 21:28 | 52.40505 | -1.69799 | 3998 ft | 204 kts | 165° |
| 2026-05-07 21:28 | 52.39095 | -1.69201 | 4363 ft | 213 kts | 167° |
| 2026-05-07 21:29 | 52.37642 | -1.68596 | 4884 ft | 218 kts | 159° |
| 2026-05-07 21:29 | 52.36268 | -1.67490 | 5406 ft | 225 kts | 154° |
| 2026-05-07 21:29 | 52.34886 | -1.66264 | 6018 ft | 230 kts | 150° |
| 2026-05-07 21:29 | 52.33466 | -1.64794 | 6245 ft | 253 kts | 148° |
| 2026-05-07 21:30 | 52.31941 | -1.63176 | 6635 ft | 267 kts | 148° |
| 2026-05-07 21:30 | 52.30361 | -1.61513 | 7267 ft | 272 kts | 149° |
| 2026-05-07 21:30 | 52.28761 | -1.59849 | 8019 ft | 274 kts | 149° |
| 2026-05-07 21:30 | 52.27138 | -1.58169 | 8739 ft | 278 kts | 149° |
| 2026-05-07 21:31 | 52.25495 | -1.56489 | 9473 ft | 281 kts | 151° |
| 2026-05-07 21:31 | 52.23754 | -1.55016 | 10186 ft | 283 kts | 156° |
| 2026-05-07 21:31 | 52.21961 | -1.53628 | 10872 ft | 286 kts | 156° |
| 2026-05-07 21:31 | 52.20158 | -1.52231 | 11607 ft | 288 kts | 156° |
| 2026-05-07 21:32 | 52.18340 | -1.50815 | 12329 ft | 291 kts | 156° |
| 2026-05-07 21:32 | 52.16507 | -1.49371 | 13072 ft | 294 kts | 156° |
| 2026-05-07 21:32 | 52.14653 | -1.47908 | 13843 ft | 297 kts | 156° |
| 2026-05-07 21:32 | 52.12781 | -1.46429 | 14524 ft | 301 kts | 156° |
| 2026-05-07 21:33 | 52.10889 | -1.44935 | 15209 ft | 304 kts | 156° |
| 2026-05-07 21:33 | 52.08978 | -1.43428 | 15913 ft | 307 kts | 156° |
| 2026-05-07 21:33 | 52.07043 | -1.41903 | 16628 ft | 310 kts | 156° |
| 2026-05-07 21:33 | 52.05090 | -1.40364 | 17337 ft | 314 kts | 156° |
| 2026-05-07 21:34 | 52.03120 | -1.38814 | 18037 ft | 317 kts | 156° |
| 2026-05-07 21:34 | 52.01121 | -1.37244 | 18672 ft | 321 kts | 156° |
| 2026-05-07 21:34 | 51.99104 | -1.35660 | 19285 ft | 323 kts | 156° |
| 2026-05-07 21:34 | 51.97071 | -1.34065 | 19906 ft | 326 kts | 156° |
| 2026-05-07 21:35 | 51.95017 | -1.32456 | 20522 ft | 329 kts | 156° |
| 2026-05-07 21:35 | 51.92945 | -1.30834 | 21123 ft | 332 kts | 156° |
| 2026-05-07 21:35 | 51.90856 | -1.29200 | 21722 ft | 335 kts | 156° |
| 2026-05-07 21:35 | 51.88744 | -1.27550 | 22318 ft | 338 kts | 156° |
| 2026-05-07 21:36 | 51.86613 | -1.25887 | 22901 ft | 342 kts | 156° |
| 2026-05-07 21:36 | 51.84463 | -1.24211 | 23471 ft | 345 kts | 156° |
| 2026-05-07 21:36 | 51.82289 | -1.22518 | 23969 ft | 348 kts | 156° |
| 2026-05-07 21:36 | 51.80101 | -1.20817 | 24454 ft | 350 kts | 156° |
| 2026-05-07 21:37 | 51.77900 | -1.19106 | 24922 ft | 353 kts | 156° |
| 2026-05-07 21:37 | 51.75684 | -1.17386 | 25413 ft | 355 kts | 156° |
| 2026-05-07 21:37 | 51.73449 | -1.15653 | 25867 ft | 358 kts | 156° |
| 2026-05-07 21:37 | 51.71226 | -1.13932 | 26331 ft | 360 kts | 157° |
| 2026-05-07 21:38 | 51.68959 | -1.12179 | 26790 ft | 363 kts | 157° |
| 2026-05-07 21:38 | 51.66675 | -1.10413 | 27252 ft | 365 kts | 157° |
| 2026-05-07 21:38 | 51.64346 | -1.08615 | 27689 ft | 368 kts | 157° |
| 2026-05-07 21:38 | 51.62062 | -1.06852 | 28125 ft | 370 kts | 156° |
| 2026-05-07 21:39 | 51.59770 | -1.04738 | 28322 ft | 383 kts | 148° |
| 2026-05-07 21:39 | 51.57568 | -1.02214 | 28409 ft | 395 kts | 146° |
| 2026-05-07 21:39 | 51.55341 | -0.99522 | 28499 ft | 406 kts | 145° |
| 2026-05-07 21:39 | 51.53051 | -0.96778 | 28571 ft | 416 kts | 146° |
| 2026-05-07 21:40 | 51.48274 | -0.91267 | 28712 ft | 435 kts | 147° |
| 2026-05-07 21:40 | 51.43033 | -0.86252 | 29087 ft | 442 kts | 160° |
| 2026-05-07 21:41 | 51.40179 | -0.84436 | 29512 ft | 441 kts | 161° |
| 2026-05-07 21:41 | 51.37310 | -0.82659 | 29866 ft | 443 kts | 161° |
| 2026-05-07 21:41 | 51.34426 | -0.80874 | 30132 ft | 446 kts | 161° |
| 2026-05-07 21:41 | 51.31531 | -0.79063 | 30388 ft | 448 kts | 161° |
| 2026-05-07 21:42 | 51.28631 | -0.77231 | 30727 ft | 448 kts | 160° |
| 2026-05-07 21:42 | 51.25743 | -0.75396 | 31155 ft | 445 kts | 160° |
| 2026-05-07 21:42 | 51.22876 | -0.73569 | 31572 ft | 443 kts | 160° |
| 2026-05-07 21:42 | 51.20019 | -0.71751 | 31922 ft | 442 kts | 160° |
| 2026-05-07 21:43 | 51.17162 | -0.69937 | 32245 ft | 442 kts | 161° |
| 2026-05-07 21:43 | 51.14308 | -0.68128 | 32608 ft | 441 kts | 161° |
| 2026-05-07 21:43 | 51.11459 | -0.66324 | 32985 ft | 439 kts | 161° |
| 2026-05-07 21:43 | 51.08625 | -0.64532 | 33343 ft | 438 kts | 161° |
| 2026-05-07 21:44 | 51.05809 | -0.62686 | 33669 ft | 439 kts | 157° |
| 2026-05-07 21:44 | 51.03145 | -0.60299 | 33992 ft | 441 kts | 149° |
| 2026-05-07 21:44 | 51.00599 | -0.57573 | 34285 ft | 441 kts | 148° |
| 2026-05-07 21:44 | 50.98069 | -0.54808 | 34486 ft | 442 kts | 148° |
| 2026-05-07 21:45 | 50.95535 | -0.52045 | 34678 ft | 443 kts | 148° |
| 2026-05-07 21:45 | 50.92984 | -0.49288 | 34902 ft | 443 kts | 148° |
| 2026-05-07 21:45 | 50.90431 | -0.46554 | 35125 ft | 443 kts | 148° |
| 2026-05-07 21:45 | 50.87866 | -0.43826 | 35328 ft | 444 kts | 149° |
| 2026-05-07 21:46 | 50.85297 | -0.41106 | 35538 ft | 445 kts | 149° |
| 2026-05-07 21:46 | 50.82724 | -0.38387 | 35754 ft | 445 kts | 149° |
| 2026-05-07 21:46 | 50.80149 | -0.35670 | 35955 ft | 445 kts | 149° |
| 2026-05-07 21:46 | 50.77570 | -0.32952 | 36126 ft | 446 kts | 149° |
| 2026-05-07 21:47 | 50.74982 | -0.30226 | 36319 ft | 446 kts | 149° |
| 2026-05-07 21:47 | 50.72400 | -0.27509 | 36517 ft | 447 kts | 149° |
| 2026-05-07 21:47 | 50.69813 | -0.24791 | 36702 ft | 447 kts | 149° |
| 2026-05-07 21:47 | 50.67222 | -0.22072 | 36872 ft | 448 kts | 149° |
| 2026-05-07 21:48 | 50.64629 | -0.19353 | 37049 ft | 448 kts | 149° |
| 2026-05-07 21:48 | 50.62020 | -0.16622 | 37059 ft | 451 kts | 149° |
| 2026-05-07 21:48 | 50.56799 | -0.11167 | 37065 ft | 449 kts | 149° |
| 2026-05-07 21:49 | 50.51609 | -0.05759 | 37064 ft | 446 kts | 149° |
| 2026-05-07 21:49 | 50.46453 | -0.00400 | 37066 ft | 443 kts | 149° |
| 2026-05-07 21:50 | 50.41326 | 0.04925 | 37066 ft | 442 kts | 149° |
| 2026-05-07 21:50 | 50.36208 | 0.10240 | 37072 ft | 441 kts | 149° |
| 2026-05-07 21:51 | 50.31082 | 0.15559 | 37075 ft | 443 kts | 149° |
| 2026-05-07 21:51 | 50.25936 | 0.20889 | 37082 ft | 445 kts | 149° |
| 2026-05-07 21:52 | 50.20762 | 0.26232 | 37076 ft | 447 kts | 149° |
| 2026-05-07 21:52 | 50.15559 | 0.31583 | 37076 ft | 449 kts | 149° |
| 2026-05-07 21:53 | 50.10330 | 0.36942 | 37070 ft | 451 kts | 149° |
| 2026-05-07 21:53 | 50.05076 | 0.42313 | 37065 ft | 452 kts | 149° |
| 2026-05-07 21:54 | 49.99849 | 0.47643 | 37059 ft | 453 kts | 149° |
| 2026-05-07 21:54 | 49.94582 | 0.53000 | 37061 ft | 452 kts | 149° |
| 2026-05-07 21:55 | 49.89315 | 0.58343 | 37055 ft | 452 kts | 149° |
| 2026-05-07 21:55 | 49.84199 | 0.63983 | 37055 ft | 454 kts | 140° |
| 2026-05-07 21:56 | 49.79600 | 0.70672 | 37060 ft | 454 kts | 139° |
| 2026-05-07 21:56 | 49.75046 | 0.77427 | 37059 ft | 453 kts | 139° |
| 2026-05-07 21:57 | 49.70472 | 0.84127 | 37059 ft | 452 kts | 139° |
| 2026-05-07 21:57 | 49.65887 | 0.90770 | 37059 ft | 452 kts | 139° |
| 2026-05-07 21:58 | 49.61295 | 0.97386 | 37068 ft | 451 kts | 139° |
| 2026-05-07 21:58 | 49.56704 | 1.03981 | 37075 ft | 451 kts | 139° |
| 2026-05-07 21:59 | 49.52108 | 1.10567 | 37077 ft | 451 kts | 140° |
| 2026-05-07 21:59 | 49.47509 | 1.17141 | 37075 ft | 451 kts | 140° |
| 2026-05-07 22:00 | 49.42900 | 1.23713 | 37078 ft | 452 kts | 140° |
| 2026-05-07 22:00 | 49.38288 | 1.30271 | 37079 ft | 452 kts | 140° |
| 2026-05-07 22:01 | 49.33669 | 1.36822 | 37072 ft | 453 kts | 140° |
| 2026-05-07 22:01 | 49.29039 | 1.43369 | 37229 ft | 453 kts | 140° |
| 2026-05-07 22:02 | 49.26724 | 1.46635 | 37071 ft | 453 kts | 140° |
| 2026-05-07 22:02 | 49.24401 | 1.49908 | 37065 ft | 453 kts | 140° |
| 2026-05-07 22:02 | 49.19761 | 1.56438 | 37073 ft | 454 kts | 140° |
| 2026-05-07 22:03 | 49.15106 | 1.62970 | 37059 ft | 454 kts | 140° |
| 2026-05-07 22:03 | 49.10449 | 1.69487 | 37072 ft | 454 kts | 140° |
| 2026-05-07 22:04 | 49.05785 | 1.75996 | 37071 ft | 455 kts | 140° |
| 2026-05-07 22:04 | 49.01112 | 1.82498 | 37071 ft | 455 kts | 140° |
| 2026-05-07 22:05 | 48.96435 | 1.88992 | 37067 ft | 455 kts | 140° |
| 2026-05-07 22:05 | 48.91931 | 1.95228 | 37069 ft | 455 kts | 140° |
| 2026-05-07 22:06 | 48.87278 | 2.01654 | 37048 ft | 454 kts | 140° |
| 2026-05-07 22:06 | 48.82601 | 2.08096 | 37054 ft | 454 kts | 140° |
| 2026-05-07 22:07 | 48.77918 | 2.14529 | 37068 ft | 454 kts | 140° |
| 2026-05-07 22:07 | 48.73229 | 2.20952 | 37079 ft | 454 kts | 140° |
| 2026-05-07 22:08 | 48.68547 | 2.27351 | 37071 ft | 454 kts | 141° |
| 2026-05-07 22:08 | 48.63853 | 2.33748 | 37074 ft | 454 kts | 141° |
| 2026-05-07 22:09 | 48.59161 | 2.40126 | 37077 ft | 454 kts | 141° |
| 2026-05-07 22:09 | 48.54462 | 2.46498 | 37077 ft | 454 kts | 141° |
| 2026-05-07 22:10 | 48.49761 | 2.52855 | 37078 ft | 454 kts | 141° |
| 2026-05-07 22:10 | 48.45050 | 2.59209 | 37077 ft | 455 kts | 141° |
| 2026-05-07 22:11 | 48.40328 | 2.65561 | 37071 ft | 455 kts | 141° |
| 2026-05-07 22:11 | 48.35606 | 2.71896 | 37072 ft | 455 kts | 141° |
| 2026-05-07 22:12 | 48.30880 | 2.78222 | 37068 ft | 455 kts | 141° |
| 2026-05-07 22:12 | 48.26105 | 2.84461 | 37063 ft | 455 kts | 144° |
| 2026-05-07 22:13 | 48.21090 | 2.90223 | 37056 ft | 454 kts | 146° |
| 2026-05-07 22:13 | 48.16042 | 2.95924 | 37061 ft | 454 kts | 145° |
| 2026-05-07 22:14 | 48.11872 | 3.00703 | 37059 ft | 455 kts | 145° |
| 2026-05-07 22:14 | 48.06661 | 3.05987 | 37044 ft | 449 kts | 158° |
| 2026-05-07 22:15 | 48.00929 | 3.09626 | 37048 ft | 448 kts | 160° |
| 2026-05-07 22:15 | 47.95161 | 3.13148 | 37058 ft | 448 kts | 160° |
| 2026-05-07 22:16 | 47.89406 | 3.16721 | 37043 ft | 448 kts | 160° |
| 2026-05-07 22:16 | 47.83662 | 3.20321 | 37055 ft | 448 kts | 160° |
| 2026-05-07 22:17 | 47.77912 | 3.23925 | 37056 ft | 448 kts | 160° |
| 2026-05-07 22:17 | 47.72163 | 3.27516 | 37054 ft | 448 kts | 160° |
| 2026-05-07 22:18 | 47.63533 | 3.32890 | 37052 ft | 448 kts | 160° |
| 2026-05-07 22:19 | 47.57776 | 3.36463 | 37054 ft | 448 kts | 160° |
| 2026-05-07 22:19 | 47.52022 | 3.40027 | 37051 ft | 448 kts | 160° |
| 2026-05-07 22:20 | 47.46269 | 3.43574 | 37056 ft | 448 kts | 160° |
| 2026-05-07 22:20 | 47.40516 | 3.47110 | 37047 ft | 448 kts | 160° |
| 2026-05-07 22:21 | 47.34762 | 3.50639 | 37051 ft | 448 kts | 160° |
| 2026-05-07 22:21 | 47.29009 | 3.54160 | 37058 ft | 447 kts | 160° |
| 2026-05-07 22:22 | 47.23256 | 3.57671 | 37050 ft | 448 kts | 160° |
| 2026-05-07 22:22 | 47.17542 | 3.61151 | 37046 ft | 447 kts | 160° |
| 2026-05-07 22:23 | 47.11790 | 3.64645 | 37053 ft | 447 kts | 160° |
| 2026-05-07 22:23 | 47.05996 | 3.68157 | 37049 ft | 448 kts | 160° |
| 2026-05-07 22:24 | 47.00282 | 3.71613 | 37048 ft | 447 kts | 160° |
| 2026-05-07 22:24 | 46.94872 | 3.76098 | 37064 ft | 454 kts | 137° |
| 2026-05-07 22:24 | 46.92872 | 3.79696 | 37040 ft | 460 kts | 122° |
| 2026-05-07 22:25 | 46.91552 | 3.83958 | 37070 ft | 462 kts | 112° |
| 2026-05-07 22:25 | 46.90426 | 3.88388 | 36718 ft | 469 kts | 112° |
| 2026-05-07 22:25 | 46.89309 | 3.92875 | 36244 ft | 468 kts | 112° |
| 2026-05-07 22:25 | 46.88183 | 3.97336 | 35730 ft | 466 kts | 112° |
| 2026-05-07 22:26 | 46.87046 | 4.01735 | 35318 ft | 461 kts | 112° |
| 2026-05-07 22:26 | 46.85898 | 4.06096 | 34891 ft | 458 kts | 112° |
| 2026-05-07 22:26 | 46.84747 | 4.10414 | 34469 ft | 455 kts | 113° |
| 2026-05-07 22:26 | 46.83599 | 4.14705 | 34052 ft | 451 kts | 113° |
| 2026-05-07 22:27 | 46.82463 | 4.18951 | 33553 ft | 448 kts | 113° |
| 2026-05-07 22:27 | 46.81334 | 4.23169 | 33101 ft | 445 kts | 112° |
| 2026-05-07 22:27 | 46.80318 | 4.27417 | 32696 ft | 441 kts | 105° |
| 2026-05-07 22:27 | 46.79647 | 4.31756 | 32378 ft | 435 kts | 103° |
| 2026-05-07 22:28 | 46.79040 | 4.36063 | 31942 ft | 433 kts | 102° |
| 2026-05-07 22:28 | 46.78447 | 4.40355 | 31543 ft | 429 kts | 102° |
| 2026-05-07 22:28 | 46.77854 | 4.44603 | 31140 ft | 426 kts | 102° |
| 2026-05-07 22:28 | 46.77254 | 4.48817 | 30749 ft | 423 kts | 102° |
| 2026-05-07 22:29 | 46.76650 | 4.52992 | 30341 ft | 420 kts | 103° |
| 2026-05-07 22:29 | 46.76042 | 4.57147 | 29923 ft | 417 kts | 103° |
| 2026-05-07 22:29 | 46.75435 | 4.61266 | 29469 ft | 414 kts | 103° |
| 2026-05-07 22:29 | 46.74831 | 4.65341 | 29072 ft | 409 kts | 103° |
| 2026-05-07 22:30 | 46.74231 | 4.69375 | 28644 ft | 405 kts | 103° |
| 2026-05-07 22:30 | 46.73636 | 4.73370 | 28248 ft | 401 kts | 103° |
| 2026-05-07 22:30 | 46.73045 | 4.77325 | 27837 ft | 398 kts | 103° |
| 2026-05-07 22:30 | 46.72457 | 4.81251 | 27446 ft | 395 kts | 103° |
| 2026-05-07 22:31 | 46.71873 | 4.85144 | 27048 ft | 392 kts | 103° |
| 2026-05-07 22:31 | 46.71293 | 4.89006 | 26633 ft | 389 kts | 103° |
| 2026-05-07 22:31 | 46.70714 | 4.92845 | 26240 ft | 386 kts | 103° |
| 2026-05-07 22:31 | 46.70139 | 4.96647 | 25862 ft | 383 kts | 103° |
| 2026-05-07 22:32 | 46.69569 | 5.00413 | 25489 ft | 381 kts | 103° |
| 2026-05-07 22:32 | 46.68997 | 5.04175 | 25102 ft | 379 kts | 103° |
| 2026-05-07 22:32 | 46.68429 | 5.07908 | 24711 ft | 377 kts | 103° |
| 2026-05-07 22:32 | 46.67863 | 5.11621 | 24342 ft | 374 kts | 103° |
| 2026-05-07 22:33 | 46.67300 | 5.15308 | 23972 ft | 372 kts | 103° |
| 2026-05-07 22:33 | 46.66738 | 5.18977 | 23590 ft | 371 kts | 103° |
| 2026-05-07 22:33 | 46.66185 | 5.22635 | 23155 ft | 369 kts | 103° |
| 2026-05-07 22:33 | 46.65639 | 5.26260 | 22751 ft | 366 kts | 102° |
| 2026-05-07 22:34 | 46.65095 | 5.29869 | 22370 ft | 363 kts | 103° |
| 2026-05-07 22:34 | 46.64556 | 5.33437 | 21975 ft | 360 kts | 103° |
| 2026-05-07 22:34 | 46.63985 | 5.36963 | 21566 ft | 355 kts | 109° |
| 2026-05-07 22:34 | 46.62749 | 5.40028 | 20841 ft | 352 kts | 136° |
| 2026-05-07 22:35 | 46.60760 | 5.42046 | 20154 ft | 349 kts | 156° |
| 2026-05-07 22:35 | 46.58561 | 5.43498 | 19564 ft | 345 kts | 158° |
| 2026-05-07 22:35 | 46.56366 | 5.44896 | 18991 ft | 343 kts | 158° |
| 2026-05-07 22:35 | 46.54190 | 5.46276 | 18445 ft | 340 kts | 158° |
| 2026-05-07 22:36 | 46.52032 | 5.47654 | 17839 ft | 337 kts | 158° |
| 2026-05-07 22:36 | 46.49899 | 5.49025 | 17248 ft | 334 kts | 158° |
| 2026-05-07 22:36 | 46.47788 | 5.50390 | 16668 ft | 331 kts | 157° |
| 2026-05-07 22:36 | 46.45695 | 5.51748 | 16087 ft | 328 kts | 157° |
| 2026-05-07 22:37 | 46.43623 | 5.53094 | 15520 ft | 325 kts | 157° |
| 2026-05-07 22:37 | 46.41569 | 5.54431 | 14948 ft | 323 kts | 157° |
| 2026-05-07 22:37 | 46.39527 | 5.55758 | 14399 ft | 321 kts | 157° |
| 2026-05-07 22:37 | 46.37498 | 5.57077 | 13884 ft | 318 kts | 158° |
| 2026-05-07 22:38 | 46.35488 | 5.58383 | 13304 ft | 316 kts | 158° |
| 2026-05-07 22:38 | 46.33501 | 5.59674 | 12756 ft | 312 kts | 158° |
| 2026-05-07 22:38 | 46.31528 | 5.60954 | 12203 ft | 309 kts | 158° |
| 2026-05-07 22:38 | 46.29576 | 5.62219 | 11727 ft | 305 kts | 158° |
| 2026-05-07 22:39 | 46.27677 | 5.63450 | 11480 ft | 292 kts | 158° |
| 2026-05-07 22:39 | 46.25854 | 5.64632 | 11173 ft | 283 kts | 158° |
| 2026-05-07 22:39 | 46.24072 | 5.65785 | 10804 ft | 278 kts | 158° |
| 2026-05-07 22:39 | 46.22315 | 5.66920 | 10352 ft | 276 kts | 158° |
| 2026-05-07 22:40 | 46.20589 | 5.68033 | 9914 ft | 275 kts | 158° |
| 2026-05-07 22:40 | 46.18830 | 5.69167 | 9439 ft | 272 kts | 158° |
| 2026-05-07 22:40 | 46.17106 | 5.70279 | 9007 ft | 271 kts | 158° |
| 2026-05-07 22:40 | 46.15383 | 5.71389 | 8722 ft | 269 kts | 158° |
| 2026-05-07 22:41 | 46.13697 | 5.72474 | 8610 ft | 261 kts | 158° |
| 2026-05-07 22:41 | 46.12062 | 5.73531 | 8462 ft | 254 kts | 158° |
| 2026-05-07 22:41 | 46.10486 | 5.74544 | 8344 ft | 243 kts | 158° |
| 2026-05-07 22:41 | 46.08967 | 5.75519 | 8057 ft | 236 kts | 158° |
| 2026-05-07 22:42 | 46.07481 | 5.76473 | 7700 ft | 232 kts | 158° |
| 2026-05-07 22:42 | 46.06022 | 5.77413 | 7430 ft | 227 kts | 156° |
| 2026-05-07 22:42 | 46.04834 | 5.78849 | 7129 ft | 233 kts | 122° |
| 2026-05-07 22:42 | 46.04485 | 5.81176 | 6702 ft | 242 kts | 80° |
| 2026-05-07 22:43 | 46.05191 | 5.83317 | 6419 ft | 244 kts | 49° |
| 2026-05-07 22:43 | 46.06335 | 5.85105 | 6100 ft | 242 kts | 46° |
| 2026-05-07 22:43 | 46.07481 | 5.86815 | 5775 ft | 233 kts | 45° |
| 2026-05-07 22:43 | 46.08586 | 5.88445 | 5485 ft | 223 kts | 45° |
| 2026-05-07 22:44 | 46.09651 | 5.90014 | 5173 ft | 215 kts | 45° |
| 2026-05-07 22:44 | 46.10674 | 5.91524 | 4878 ft | 206 kts | 46° |
| 2026-05-07 22:44 | 46.11656 | 5.92976 | 4638 ft | 201 kts | 46° |
| 2026-05-07 22:44 | 46.12627 | 5.94409 | 4363 ft | 198 kts | 45° |
| 2026-05-07 22:45 | 46.13584 | 5.95824 | 4103 ft | 196 kts | 46° |
| 2026-05-07 22:45 | 46.14530 | 5.97222 | 3849 ft | 193 kts | 46° |
| 2026-05-07 22:45 | 46.15455 | 5.98584 | 3591 ft | 186 kts | 45° |
| 2026-05-07 22:45 | 46.16327 | 5.99870 | 3372 ft | 173 kts | 45° |
| 2026-05-07 22:46 | 46.17144 | 6.01077 | 3098 ft | 166 kts | 45° |
| 2026-05-07 22:46 | 46.17938 | 6.02248 | 2857 ft | 160 kts | 45° |
| 2026-05-07 22:46 | 46.18709 | 6.03386 | 2628 ft | 157 kts | 45° |
| 2026-05-07 22:46 | 46.19471 | 6.04510 | 2405 ft | 156 kts | 45° |
| 2026-05-07 22:47 | 46.20232 | 6.05631 | 2174 ft | 156 kts | 45° |
| 2026-05-07 22:47 | 46.20993 | 6.06753 | 1964 ft | 156 kts | 45° |
| 2026-05-07 22:47 | 46.21754 | 6.07875 | 1751 ft | 157 kts | 44° |
| 2026-05-07 22:47 | 46.22517 | 6.08999 | 1534 ft | 156 kts | 44° |
| 2026-05-07 22:48 | 46.23261 | 6.10092 | 1407 ft | 144 kts | 44° |
| 2026-05-07 22:48 | 46.23885 | 6.11008 | 1376 ft | 108 kts | 45° |
| 2026-05-07 22:48 | 46.24300 | 6.11615 | 1372 ft | 56 kts | 45° |
| 2026-05-07 22:48 | 46.24556 | 6.11994 | 1371 ft | 51 kts | 46° |
| 2026-05-07 22:49 | 46.24785 | 6.12328 | 1371 ft | 44 kts | 45° |
| 2026-05-07 22:49 | 46.24961 | 6.12616 | 1370 ft | 28 kts | 55° |
| 2026-05-07 22:49 | 46.24946 | 6.12733 | 1367 ft | 10 kts | 178° |
| 2026-05-07 22:49 | 46.24874 | 6.12706 | 1364 ft | 12 kts | 196° |
| 2026-05-07 22:50 | 46.24793 | 6.12658 | 1360 ft | 14 kts | 210° |
| 2026-05-07 22:50 | 46.24721 | 6.12572 | 1361 ft | 13 kts | 225° |
| 2026-05-07 22:50 | 46.24660 | 6.12479 | 1365 ft | 12 kts | 228° |
| 2026-05-07 22:50 | 46.24601 | 6.12390 | 1369 ft | 14 kts | 224° |
| 2026-05-07 22:51 | 46.24510 | 6.12262 | 1371 ft | 22 kts | 225° |
| 2026-05-07 22:51 | 46.24399 | 6.12099 | 1368 ft | 24 kts | 226° |
| 2026-05-07 22:51 | 46.24273 | 6.11915 | 1361 ft | 28 kts | 225° |
| 2026-05-07 22:51 | 46.24142 | 6.11720 | 1365 ft | 26 kts | 225° |
| 2026-05-07 22:52 | 46.24019 | 6.11539 | 1370 ft | 24 kts | 225° |
| 2026-05-07 22:52 | 46.23902 | 6.11374 | 1373 ft | 23 kts | 225° |
| 2026-05-07 22:52 | 46.23804 | 6.11227 | 1374 ft | 22 kts | 226° |
| 2026-05-07 22:52 | 46.23707 | 6.11083 | 1385 ft | 12 kts | 218° |
| 2026-05-07 22:53 | 46.23653 | 6.11093 | 1387 ft | 7 kts | 136° |
| 2026-05-07 22:53 | 46.23605 | 6.11153 | 1390 ft | 15 kts | 151° |
| 2026-05-07 22:53 | 46.23551 | 6.11132 | 1392 ft | 7 kts | 220° |
| 2026-05-07 22:53 | 46.23494 | 6.11051 | 1398 ft | 17 kts | 224° |
| 2026-05-07 22:54 | 46.23414 | 6.10928 | 1400 ft | 17 kts | 228° |
| 2026-05-07 22:54 | 46.23329 | 6.10816 | 1398 ft | 16 kts | 209° |
| 2026-05-07 22:54 | 46.23229 | 6.10750 | 1400 ft | 16 kts | 220° |
| 2026-05-07 22:54 | 46.23156 | 6.10638 | 1395 ft | 15 kts | 229° |
| 2026-05-07 22:55 | 46.23079 | 6.10542 | 1392 ft | 14 kts | 211° |
| 2026-05-07 22:55 | 46.23052 | 6.10544 | 1392 ft | 4 kts | 153° |
| 2026-05-07 22:55 | 46.23034 | 6.10567 | 1399 ft | 0 kts | 137° |